Time;durP1;ratioP1;P1;durP2;ratioP2;P2;SDS_P1;SDS_P2;PMS_P1;PMS_P2;Temp;Humidity;BMP_temperature;BMP_pressure;BME280_temperature;BME280_humidity;BME280_pressure;Samples;Min_cycle;Max_cycle;Signal;HPM_P1;HPM_P2
2023/08/17 00:02:22;;;;;;;10.18;9.15;;;;;;;;;;5058348;28;20021;-73
2023/08/17 00:04:48;;;;;;;11.88;10.07;;;;;;;;;;5052015;28;20096;-73
2023/08/17 00:07:14;;;;;;;11.15;10.05;;;;;;;;;;5071803;28;20013;-72
2023/08/17 00:09:40;;;;;;;12.20;10.40;;;;;;;;;;5064487;28;20021;-72
2023/08/17 00:12:06;;;;;;;12.27;10.18;;;;;;;;;;5060251;28;20020;-72
2023/08/17 00:14:32;;;;;;;13.70;11.65;;;;;;;;;;5067579;28;20025;-73
2023/08/17 00:16:58;;;;;;;12.90;11.48;;;;;;;;;;5055268;28;20151;-72
2023/08/17 00:19:24;;;;;;;12.70;11.43;;;;;;;;;;5065458;28;20067;-71
2023/08/17 00:21:52;;;;;;;12.15;10.75;;;;;;;;;;5061697;28;20029;-71
2023/08/17 00:24:18;;;;;;;12.35;10.95;;;;;;;;;;5069576;28;20016;-72
2023/08/17 00:26:44;;;;;;;14.20;11.70;;;;;;;;;;5052566;28;20028;-73
2023/08/17 00:29:10;;;;;;;14.60;12.27;;;;;;;;;;5069464;28;20148;-73
2023/08/17 00:31:36;;;;;;;13.48;12.07;;;;;;;;;;5071760;28;20031;-72
2023/08/17 00:34:02;;;;;;;14.07;11.30;;;;;;;;;;5060347;28;20025;-73
2023/08/17 00:36:28;;;;;;;12.23;10.77;;;;;;;;;;5066555;28;20024;-73
2023/08/17 00:38:54;;;;;;;14.35;12.57;;;;;;;;;;5054442;28;20025;-72
2023/08/17 00:41:20;;;;;;;15.32;12.60;;;;;;;;;;5059484;28;20072;-73
2023/08/17 00:43:46;;;;;;;14.20;12.23;;;;;;;;;;5060610;28;20028;-72
2023/08/17 00:46:13;;;;;;;13.43;11.60;;;;;;;;;;5058863;28;20476;-72
2023/08/17 00:48:39;;;;;;;13.75;12.25;;;;;;;;;;5067415;28;20032;-72
2023/08/17 00:51:06;;;;;;;15.73;12.80;;;;;;;;;;5054932;28;20013;-72
2023/08/17 00:53:32;;;;;;;16.42;13.20;;;;;;;;;;5064357;28;20027;-73
2023/08/17 00:55:59;;;;;;;14.48;12.57;;;;;;;;;;5062069;28;20078;-72
2023/08/17 00:58:25;;;;;;;16.70;13.85;;;;;;;;;;5055987;28;20029;-72
2023/08/17 01:00:51;;;;;;;16.67;13.07;;;;;;;;;;5060456;28;20032;-71
2023/08/17 01:03:17;;;;;;;15.48;13.40;;;;;;;;;;5055929;28;20024;-72
2023/08/17 01:05:43;;;;;;;14.13;12.57;;;;;;;;;;5071262;28;20047;-71
2023/08/17 01:08:09;;;;;;;19.80;13.70;;;;;;;;;;5058285;28;20032;-71
2023/08/17 01:10:58;;;;;;;14.43;12.93;;;;;;;;;;5066955;28;20396;-72
2023/08/17 01:13:48;;;;;;;17.83;13.38;;;;;;;;;;5063272;28;20021;-73
2023/08/17 01:16:16;;;;;;;17.17;15.00;;;;;;;;;;5051195;28;20380;-72
2023/08/17 01:18:43;;;;;;;14.65;13.10;;;;;;;;;;5066648;28;20036;-72
2023/08/17 01:21:10;;;;;;;19.33;14.45;;;;;;;;;;5058951;28;20021;-73
2023/08/17 01:23:36;;;;;;;15.38;13.43;;;;;;;;;;5052139;28;20021;-73
2023/08/17 01:26:03;;;;;;;15.63;14.00;;;;;;;;;;5062392;28;20127;-72
2023/08/17 01:28:29;;;;;;;16.45;14.65;;;;;;;;;;5055121;28;20013;-72
2023/08/17 01:31:08;;;;;;;16.30;14.10;;;;;;;;;;5067270;28;20028;-72
2023/08/17 01:33:38;;;;;;;18.45;14.90;;;;;;;;;;5057818;28;20028;-72
2023/08/17 01:36:04;;;;;;;18.10;15.23;;;;;;;;;;5058482;28;20084;-71
2023/08/17 01:38:30;;;;;;;16.83;14.80;;;;;;;;;;5064262;28;20119;-71
2023/08/17 01:40:57;;;;;;;17.90;16.02;;;;;;;;;;5035848;28;20052;-72
2023/08/17 01:43:23;;;;;;;16.67;14.98;;;;;;;;;;5064723;28;20519;-72
2023/08/17 01:45:49;;;;;;;17.63;14.13;;;;;;;;;;5060045;28;20020;-72
2023/08/17 01:48:15;;;;;;;15.70;13.90;;;;;;;;;;5063909;28;20377;-72
2023/08/17 01:50:41;;;;;;;16.80;14.95;;;;;;;;;;5053942;28;20029;-71
2023/08/17 01:53:09;;;;;;;17.17;15.23;;;;;;;;;;5066226;28;20024;-72
2023/08/17 01:55:35;;;;;;;17.02;15.32;;;;;;;;;;5040060;28;20031;-72
2023/08/17 01:58:01;;;;;;;19.95;17.08;;;;;;;;;;5058600;28;20025;-72
2023/08/17 02:00:28;;;;;;;23.70;16.63;;;;;;;;;;5064975;28;20025;-71
2023/08/17 02:02:54;;;;;;;18.45;16.52;;;;;;;;;;5054085;28;20155;-71
2023/08/17 02:05:20;;;;;;;18.65;16.73;;;;;;;;;;5064768;28;20095;-70
2023/08/17 02:07:46;;;;;;;19.45;17.45;;;;;;;;;;5040711;28;20027;-72
2023/08/17 02:10:12;;;;;;;18.20;16.38;;;;;;;;;;5056561;28;20116;-71
2023/08/17 02:12:38;;;;;;;18.17;16.27;;;;;;;;;;5066282;28;20024;-72
2023/08/17 02:15:04;;;;;;;20.27;17.00;;;;;;;;;;5053352;28;20027;-72
2023/08/17 02:17:30;;;;;;;18.65;15.25;;;;;;;;;;5063515;28;20477;-72
2023/08/17 02:19:56;;;;;;;17.00;15.20;;;;;;;;;;5070499;28;20098;-72
2023/08/17 02:22:22;;;;;;;18.25;15.30;;;;;;;;;;5055691;28;20016;-72
2023/08/17 02:24:48;;;;;;;17.25;14.88;;;;;;;;;;5056755;28;20074;-72
2023/08/17 02:27:14;;;;;;;17.10;15.38;;;;;;;;;;5053958;28;20468;-72
2023/08/17 02:29:40;;;;;;;18.52;15.38;;;;;;;;;;5061880;28;20036;-73
2023/08/17 02:32:06;;;;;;;17.67;15.37;;;;;;;;;;5085463;22;20024;-74
2023/08/17 02:34:32;;;;;;;16.85;15.13;;;;;;;;;;5063933;28;20036;-74
2023/08/17 02:36:58;;;;;;;19.13;16.83;;;;;;;;;;5068739;28;20032;-73
2023/08/17 02:39:24;;;;;;;17.95;16.15;;;;;;;;;;5068966;28;20096;-73
2023/08/17 02:41:50;;;;;;;20.15;15.25;;;;;;;;;;5069281;28;20028;-74
2023/08/17 02:44:16;;;;;;;16.67;14.95;;;;;;;;;;5049627;28;20020;-73
2023/08/17 02:46:42;;;;;;;16.02;14.43;;;;;;;;;;5068678;28;20028;-74
2023/08/17 02:49:08;;;;;;;20.50;15.18;;;;;;;;;;5043097;28;20111;-74
2023/08/17 02:51:34;;;;;;;16.92;14.80;;;;;;;;;;5069842;28;20016;-73
2023/08/17 02:54:00;;;;;;;17.13;14.93;;;;;;;;;;5069631;28;20205;-73
2023/08/17 02:56:26;;;;;;;17.27;15.57;;;;;;;;;;5069520;28;20017;-74
2023/08/17 02:58:52;;;;;;;18.13;14.80;;;;;;;;;;5067101;28;20499;-74
2023/08/17 03:01:18;;;;;;;16.83;13.75;;;;;;;;;;5039638;28;20059;-74
2023/08/17 03:03:44;;;;;;;22.05;17.30;;;;;;;;;;5050147;28;20106;-74
2023/08/17 03:06:10;;;;;;;21.67;17.98;;;;;;;;;;5056350;28;20107;-74
2023/08/17 03:08:36;;;;;;;40.13;29.15;;;;;;;;;;5073579;28;20555;-74
2023/08/17 03:11:02;;;;;;;31.25;21.08;;;;;;;;;;5073364;28;20048;-76
2023/08/17 03:13:29;;;;;;;19.13;16.70;;;;;;;;;;5073976;28;20020;-75
2023/08/17 03:15:55;;;;;;;17.05;15.18;;;;;;;;;;5054001;28;20107;-74
2023/08/17 03:18:21;;;;;;;20.80;16.98;;;;;;;;;;5072724;28;20510;-76
2023/08/17 03:20:47;;;;;;;18.77;16.60;;;;;;;;;;5072439;28;20112;-75
2023/08/17 03:23:13;;;;;;;63.20;37.28;;;;;;;;;;5071317;28;20070;-75
2023/08/17 03:25:39;;;;;;;27.75;17.70;;;;;;;;;;5072525;28;20025;-73
2023/08/17 03:28:05;;;;;;;17.65;15.27;;;;;;;;;;5072780;28;20086;-73
2023/08/17 03:30:31;;;;;;;20.90;15.48;;;;;;;;;;5053418;28;20021;-74
2023/08/17 03:32:57;;;;;;;17.13;15.25;;;;;;;;;;5053631;28;20042;-73
2023/08/17 03:35:23;;;;;;;17.00;15.18;;;;;;;;;;5072597;28;20546;-74
2023/08/17 03:37:49;;;;;;;17.40;14.77;;;;;;;;;;5071862;28;20078;-73
2023/08/17 03:40:15;;;;;;;17.00;13.93;;;;;;;;;;5072531;28;20423;-73
2023/08/17 03:42:41;;;;;;;17.52;14.13;;;;;;;;;;5072071;28;20021;-73
2023/08/17 03:45:07;;;;;;;17.10;14.10;;;;;;;;;;5072261;28;20078;-74
2023/08/17 03:47:33;;;;;;;17.50;15.65;;;;;;;;;;5071659;28;20090;-74
2023/08/17 03:49:59;;;;;;;16.75;15.05;;;;;;;;;;5053452;28;20512;-73
2023/08/17 03:52:25;;;;;;;20.85;16.55;;;;;;;;;;5072192;28;20074;-74
2023/08/17 03:54:51;;;;;;;17.60;15.73;;;;;;;;;;5071408;28;20070;-74
2023/08/17 03:57:17;;;;;;;16.92;15.25;;;;;;;;;;5071736;28;20070;-73
2023/08/17 03:59:43;;;;;;;19.58;17.23;;;;;;;;;;5054129;28;20033;-73
2023/08/17 04:02:10;;;;;;;19.17;16.75;;;;;;;;;;5031067;28;20020;-73
2023/08/17 04:04:36;;;;;;;18.73;15.52;;;;;;;;;;5070660;28;20019;-74
2023/08/17 04:07:02;;;;;;;18.10;16.15;;;;;;;;;;5070932;28;20021;-76
2023/08/17 04:09:28;;;;;;;16.85;14.50;;;;;;;;;;5072097;28;20017;-74
2023/08/17 04:11:57;;;;;;;17.83;14.00;;;;;;;;;;5071753;28;20421;-74
2023/08/17 04:14:23;;;;;;;14.30;12.80;;;;;;;;;;5071456;28;20023;-74
2023/08/17 04:16:49;;;;;;;15.50;13.93;;;;;;;;;;5070854;28;20037;-74
2023/08/17 04:19:15;;;;;;;14.30;12.80;;;;;;;;;;5071444;28;20407;-74
2023/08/17 04:21:41;;;;;;;13.50;12.20;;;;;;;;;;5071727;28;20028;-75
2023/08/17 04:24:07;;;;;;;14.15;12.30;;;;;;;;;;5069214;28;20127;-74
2023/08/17 04:26:33;;;;;;;13.32;12.02;;;;;;;;;;5066820;28;20017;-76
2023/08/17 04:28:59;;;;;;;13.43;11.98;;;;;;;;;;5046404;28;20489;-75
2023/08/17 04:31:26;;;;;;;14.00;12.18;;;;;;;;;;5071600;28;20020;-73
2023/08/17 04:33:52;;;;;;;13.10;11.68;;;;;;;;;;5052972;28;20035;-74
2023/08/17 04:36:18;;;;;;;14.75;11.65;;;;;;;;;;5053318;28;20488;-74
2023/08/17 04:38:44;;;;;;;12.60;10.85;;;;;;;;;;5067768;28;20029;-75
2023/08/17 04:41:10;;;;;;;14.10;12.57;;;;;;;;;;5071194;28;20070;-74
2023/08/17 04:43:36;;;;;;;13.13;11.82;;;;;;;;;;5071019;28;20067;-74
2023/08/17 04:46:02;;;;;;;13.38;11.82;;;;;;;;;;5053112;28;20682;-74
2023/08/17 04:48:28;;;;;;;17.83;13.00;;;;;;;;;;5062861;28;20016;-73
2023/08/17 04:50:54;;;;;;;13.52;12.13;;;;;;;;;;5070251;28;20027;-74
2023/08/17 04:53:20;;;;;;;13.88;12.25;;;;;;;;;;5064912;28;20032;-74
2023/08/17 04:55:46;;;;;;;12.90;11.60;;;;;;;;;;5049275;28;20063;-74
2023/08/17 04:58:12;;;;;;;14.32;11.43;;;;;;;;;;5069760;28;20044;-74
2023/08/17 05:00:38;;;;;;;13.50;11.77;;;;;;;;;;5062470;28;20480;-74
2023/08/17 05:03:05;;;;;;;15.98;13.13;;;;;;;;;;5051602;28;20036;-74
2023/08/17 05:05:31;;;;;;;14.57;12.88;;;;;;;;;;5069265;28;20036;-75
2023/08/17 05:07:57;;;;;;;16.70;13.05;;;;;;;;;;5069843;28;20073;-75
2023/08/17 05:10:23;;;;;;;15.00;11.90;;;;;;;;;;5070619;28;20078;-74
2023/08/17 05:12:49;;;;;;;14.52;12.52;;;;;;;;;;5069805;28;20054;-74
2023/08/17 05:15:15;;;;;;;14.48;12.93;;;;;;;;;;5070658;28;20029;-74
2023/08/17 05:17:41;;;;;;;15.73;12.80;;;;;;;;;;5051615;28;20025;-73
2023/08/17 05:20:08;;;;;;;18.45;13.68;;;;;;;;;;5070649;28;20396;-74
2023/08/17 05:22:34;;;;;;;17.88;14.05;;;;;;;;;;5070462;28;20021;-73
2023/08/17 05:25:00;;;;;;;16.38;11.60;;;;;;;;;;5068482;28;20040;-73
2023/08/17 05:27:26;;;;;;;21.13;14.00;;;;;;;;;;5069064;28;20096;-74
2023/08/17 05:29:52;;;;;;;14.20;12.82;;;;;;;;;;5070261;28;20110;-74
2023/08/17 05:32:18;;;;;;;17.63;13.70;;;;;;;;;;5051787;28;20636;-73
2023/08/17 05:34:44;;;;;;;18.85;12.27;;;;;;;;;;5069324;28;20074;-74
2023/08/17 05:37:10;;;;;;;15.38;12.32;;;;;;;;;;5031788;28;20028;-74
2023/08/17 05:39:36;;;;;;;20.80;12.55;;;;;;;;;;5065826;28;20067;-74
2023/08/17 05:42:02;;;;;;;29.48;12.93;;;;;;;;;;5070515;28;20040;-74
2023/08/17 05:44:28;;;;;;;15.02;10.20;;;;;;;;;;5063454;28;20032;-74
2023/08/17 05:46:56;;;;;;;14.77;9.48;;;;;;;;;;5051028;28;20170;-74
2023/08/17 05:49:22;;;;;;;11.93;9.45;;;;;;;;;;5068939;28;20082;-74
2023/08/17 05:51:48;;;;;;;12.43;10.02;;;28.40;62.00;;;;;;5061849;28;20025;-74
2023/08/17 05:54:13;;;;;;;12.38;8.75;;;28.40;61.00;;;;;;5050591;28;20070;-74
2023/08/17 05:56:44;;;;;;;13.73;8.38;;;27.80;62.40;;;;;;5067603;28;20058;-73
2023/08/17 05:59:10;;;;;;;10.40;8.38;;;27.20;64.20;;;;;;5051687;28;20056;-74
2023/08/17 06:01:40;;;;;;;10.98;9.25;;;;;;;;;;5036598;28;20372;-73
2023/08/17 06:04:06;;;;;;;12.50;9.70;;;;;;;;;;5067313;28;20032;-73
2023/08/17 06:06:32;;;;;;;10.65;9.55;;;;;;;;;;5068551;28;20544;-73
2023/08/17 06:08:58;;;;;;;11.60;8.82;;;;;;;;;;5067386;28;20499;-74
2023/08/17 06:11:24;;;;;;;11.75;9.35;;;;;;;;;;5058473;28;20021;-74
2023/08/17 06:13:50;;;;;;;9.80;8.30;;;;;;;;;;5075342;28;20020;-74
2023/08/17 06:16:16;;;;;;;9.48;8.50;;;;;;;;;;5058940;28;20040;-74
2023/08/17 06:18:42;;;;;;;9.30;7.80;;;;;;;;;;5053672;28;20037;-76
2023/08/17 06:21:09;;;;;;;10.88;7.43;;;;;;;;;;5053518;28;20032;-75
2023/08/17 06:23:35;;;;;;;9.40;7.75;;;;;;;;;;5050467;28;20056;-75
2023/08/17 06:26:01;;;;;;;15.80;9.52;;;;;;;;;;5053830;28;20056;-75
2023/08/17 06:28:28;;;;;;;13.23;8.85;;;;;;;;;;5036476;28;20020;-76
2023/08/17 06:30:57;;;;;;;10.70;8.13;;;;;;;;;;5050487;28;20051;-74
2023/08/17 06:33:24;;;;;;;10.40;8.15;;;;;;;;;;5047273;28;20039;-76
2023/08/17 06:35:50;;;;;;;11.35;8.65;;;;;;;;;;5051767;28;20049;-76
2023/08/17 06:38:16;;;;;;;10.45;8.93;;;;;;;;;;5040499;28;20330;-73
2023/08/17 06:40:42;;;;;;;10.75;8.32;;;;;;;;;;5072891;28;20032;-74
2023/08/17 06:43:09;;;;;;;12.52;8.27;;;;;;;;;;5065922;28;20081;-74
2023/08/17 06:45:35;;;;;;;11.88;8.70;;;;;;;;;;5052903;28;20519;-74
2023/08/17 06:48:01;;;;;;;10.27;9.00;;;;;;;;;;5063241;28;20594;-74
2023/08/17 06:50:28;;;;;;;11.13;9.63;;;;;;;;;;5072795;28;20514;-74
2023/08/17 06:52:54;;;;;;;14.77;10.32;;;;;;;;;;5064778;28;20098;-74
2023/08/17 06:55:20;;;;;;;11.77;8.60;;;;;;;;;;5072927;28;20025;-74
2023/08/17 06:57:49;;;;;;;10.82;8.82;;;;;;;;;;5072049;28;20514;-76
2023/08/17 07:00:16;;;;;;;15.18;8.52;;;;;;;;;;5060589;28;20475;-74
2023/08/17 07:02:42;;;;;;;10.63;8.65;;;;;;;;;;5068621;28;20036;-74
2023/08/17 07:05:08;;;;;;;9.73;8.73;;;;;;;;;;5072263;28;20020;-74
2023/08/17 07:07:34;;;;;;;8.88;8.07;;;;;;;;;;5065469;28;20075;-73
2023/08/17 07:10:01;;;;;;;11.68;9.90;;;;;;;;;;5052817;28;20104;-74
2023/08/17 07:12:28;;;;;;;11.48;8.70;;;;;;;;;;5066106;28;20096;-73
2023/08/17 07:14:54;;;;;;;9.98;8.50;;;;;;;;;;5069178;28;20082;-73
2023/08/17 07:17:20;;;;;;;14.15;8.60;;;;;;;;;;5068208;28;20089;-75
2023/08/17 07:19:46;;;;;;;9.65;8.13;;;;;;;;;;5066553;28;20036;-74
2023/08/17 07:22:12;;;;;;;12.15;7.95;;;;;;;;;;5064735;28;20020;-74
2023/08/17 07:24:38;;;;;;;9.40;7.55;;;;;;;;;;5068711;28;20017;-74
2023/08/17 07:27:04;;;;;;;8.98;7.03;;;;;;;;;;5068968;28;20106;-75
2023/08/17 07:29:30;;;;;;;10.18;7.50;;;;;;;;;;5070472;28;20043;-75
2023/08/17 07:32:01;;;;;;;8.95;7.80;;;31.00;52.60;;;;;;5069296;28;20488;-75
2023/08/17 07:34:26;;;;;;;8.63;6.45;;;31.20;51.30;;;;;;5065016;28;20523;-74
2023/08/17 07:36:52;;;;;;;9.52;7.00;;;30.90;52.90;;;;;;5067591;28;20041;-75
2023/08/17 07:39:18;;;;;;;13.38;7.45;;;31.20;51.20;;;;;;5070260;28;20084;-74
2023/08/17 07:41:44;;;;;;;8.75;7.40;;;;;;;;;;5071902;28;20052;-74
2023/08/17 07:44:11;;;;;;;9.77;6.53;;;30.60;53.10;;;;;;5071808;28;20070;-76
2023/08/17 07:46:37;;;;;;;10.77;7.28;;;;;;;;;;5071562;28;20027;-75
2023/08/17 07:49:03;;;;;;;9.70;7.22;;;;;;;;;;5062622;28;20025;-74
2023/08/17 07:51:31;;;;;;;9.20;7.10;;;;;;;;;;5071572;28;20500;-75
2023/08/17 07:53:57;;;;;;;10.90;5.47;;;;;;;;;;5071442;28;20396;-75
2023/08/17 07:56:23;;;;;;;6.75;5.65;;;;;;;;;;5071824;28;20028;-74
2023/08/17 07:58:50;;;;;;;7.85;5.82;;;;;;;;;;5070087;28;20027;-74
2023/08/17 08:01:16;;;;;;;7.40;5.50;;;;;;;;;;5071545;28;20092;-74
2023/08/17 08:03:42;;;;;;;8.10;5.65;;;;;;;;;;5070769;28;20096;-74
2023/08/17 08:06:08;;;;;;;10.73;5.55;;;;;;;;;;5064548;28;20113;-75
2023/08/17 08:08:34;;;;;;;9.95;6.25;;;;;;;;;;5065330;28;20024;-74
2023/08/17 08:11:00;;;;;;;6.68;5.18;;;;;;;;;;5070111;28;20013;-74
2023/08/17 08:13:26;;;;;;;10.07;6.07;;;;;;;;;;5071593;28;20069;-75
2023/08/17 08:15:52;;;;;;;7.93;5.95;;;;;;;;;;5054338;28;20029;-74
2023/08/17 08:18:18;;;;;;;7.32;5.00;;;;;;;;;;5071173;28;20032;-75
2023/08/17 08:20:44;;;;;;;5.65;5.15;;;;;;;;;;5064225;28;20025;-75
2023/08/17 08:23:10;;;;;;;7.22;5.47;;;;;;;;;;5072453;28;20107;-75
2023/08/17 08:25:35;;;;;;;6.80;6.13;;;37.60;36.50;;;;;;5071167;28;20157;-75
2023/08/17 08:28:01;;;;;;;7.53;6.25;;;35.70;39.60;;;;;;5070523;28;20556;-74
2023/08/17 08:30:27;;;;;;;6.03;5.22;;;35.10;41.00;;;;;;5071075;28;20024;-75
2023/08/17 08:35:22;;;;;;;6.22;5.53;;;34.00;42.90;;;;;;5051703;28;20265;-74
2023/08/17 08:37:47;;;;;;;10.93;6.45;;;33.90;44.10;;;;;;5052349;28;20032;-72
2023/08/17 08:40:14;;;;;;;13.85;6.80;;;33.70;44.00;;;;;;5051702;28;20392;-73
2023/08/17 08:42:40;;;;;;;8.10;6.13;;;33.50;45.30;;;;;;5052013;28;20024;-73
2023/08/17 08:45:06;;;;;;;7.90;5.00;;;;;;;;;;5052887;28;20431;-73
2023/08/17 08:47:34;;;;;;;7.35;5.63;;;;;;;;;;5051641;28;20239;-74
2023/08/17 08:50:02;;;;;;;5.60;4.70;;;;;;;;;;5052223;28;20534;-73
2023/08/17 08:52:34;;;;;;;11.30;4.55;;;;;;;;;;5034213;28;20472;-74
2023/08/17 08:55:03;;;;;;;7.68;5.13;;;;;;;;;;5034839;28;20404;-73
2023/08/17 08:57:30;;;;;;;10.65;6.70;;;;;;;;;;5051435;28;20088;-73
2023/08/17 08:59:56;;;;;;;6.18;5.57;;;;;;;;;;5051861;28;20496;-73
2023/08/17 09:02:25;;;;;;;7.13;6.40;;;;;;;;;;5052172;28;20099;-74
2023/08/17 09:04:51;;;;;;;7.05;4.00;;;;;;;;;;5034612;28;20037;-73
2023/08/17 09:07:18;;;;;;;5.82;4.88;;;;;;;;;;5049960;28;20435;-73
2023/08/17 09:09:45;;;;;;;6.38;4.88;;;;;;;;;;5051883;28;20498;-74
2023/08/17 09:12:11;;;;;;;8.57;5.40;;;;;;;;;;5051851;28;20017;-73
2023/08/17 09:14:37;;;;;;;10.05;5.75;;;37.80;36.50;;;;;;5050740;28;20025;-74
2023/08/17 09:17:06;;;;;;;8.27;5.70;;;37.60;36.30;;;;;;5051742;28;20032;-71
2023/08/17 09:19:33;;;;;;;6.70;6.00;;;35.40;39.90;;;;;;5033890;28;20109;-73
2023/08/17 09:21:59;;;;;;;10.52;5.90;;;34.50;41.50;;;;;;5051426;28;20052;-72
2023/08/17 09:24:34;;;;;;;8.50;6.25;;;33.40;44.20;;;;;;5051791;28;20100;-73
2023/08/17 09:27:00;;;;;;;6.93;6.15;;;33.60;43.40;;;;;;5033919;28;20028;-72
2023/08/17 09:29:26;;;;;;;6.75;5.90;;;32.90;44.80;;;;;;5051734;28;20023;-74
2023/08/17 09:31:52;;;;;;;6.90;5.32;;;;;;;;;;5051656;28;20025;-75
2023/08/17 09:34:19;;;;;;;8.43;5.97;;;34.00;43.10;;;;;;5050956;28;20036;-72
2023/08/17 09:36:48;;;;;;;9.88;6.60;;;;;;;;;;5052004;28;20495;-74
2023/08/17 09:39:16;;;;;;;8.40;6.78;;;;;;;;;;5043227;28;20017;-75
2023/08/17 09:41:42;;;;;;;8.05;6.55;;;;;;;;;;5051600;28;20025;-75
2023/08/17 09:44:08;;;;;;;8.15;5.57;;;;;;;;;;5051127;28;20044;-74
2023/08/17 09:46:34;;;;;;;9.10;6.20;;;;;;;;;;5050959;28;20025;-72
2023/08/17 09:49:04;;;;;;;10.02;6.45;;;;;;;;;;5050285;28;20400;-73
2023/08/17 09:51:30;;;;;;;10.70;6.77;;;;;;;;;;5050782;28;20017;-73
2023/08/17 09:53:57;;;;;;;9.25;5.78;;;;;;;;;;5049246;28;20579;-72
2023/08/17 09:56:24;;;;;;;10.23;6.50;;;;;;;;;;5049414;28;20634;-73
2023/08/17 09:58:52;;;;;;;7.43;6.07;;;;;;;;;;5049821;28;20033;-73
2023/08/17 10:01:19;;;;;;;9.27;7.10;;;;;;;;;;5050885;28;20029;-73
2023/08/17 10:03:46;;;;;;;7.38;6.38;;;;;;;;;;5050727;28;20025;-73
2023/08/17 10:06:13;;;;;;;7.38;6.55;;;;;;;;;;5051228;28;20025;-73
2023/08/17 10:08:43;;;;;;;9.23;6.75;;;;;;;;;;5050341;28;20039;-73
2023/08/17 10:11:10;;;;;;;8.75;6.57;;;;;;;;;;5050772;28;20025;-73
2023/08/17 10:13:36;;;;;;;8.93;6.22;;;;;;;;;;5046331;28;20026;-72
2023/08/17 10:16:02;;;;;;;9.30;6.55;;;;;;;;;;5048877;28;20021;-74
2023/08/17 10:18:28;;;;;;;7.93;7.15;;;;;;;;;;5050100;28;20421;-72
2023/08/17 10:21:21;;;;;;;12.73;6.45;;;;;;;;;;5033307;28;20029;-73
2023/08/17 10:23:47;;;;;;;11.93;7.20;;;;;;;;;;5042238;28;20063;-72
2023/08/17 10:26:13;;;;;;;7.63;6.63;;;;;;;;;;5050643;28;20395;-73
2023/08/17 10:28:39;;;;;;;9.77;6.97;;;;;;;;;;5049725;28;20022;-72
2023/08/17 10:31:07;;;;;;;11.25;7.05;;;;;;;;;;5051584;28;20021;-72
2023/08/17 10:33:33;;;;;;;8.65;6.70;;;;;;;;;;5036124;28;20051;-73
2023/08/17 10:36:01;;;;;;;7.50;6.53;;;;;;;;;;5050981;28;20033;-73
2023/08/17 10:38:27;;;;;;;7.80;7.00;;;;;;;;;;5050016;28;20021;-73
2023/08/17 10:41:09;;;;;;;9.75;7.57;;;;;;;;;;5051408;28;20078;-73
2023/08/17 10:43:36;;;;;;;8.68;7.53;;;;;;;;;;5050528;28;20035;-72
2023/08/17 10:46:16;;;;;;;11.10;6.93;;;;;;;;;;5050404;28;20032;-73
2023/08/17 10:48:44;;;;;;;8.43;6.88;;;;;;;;;;5032473;28;20083;-74
2023/08/17 10:51:13;;;;;;;8.43;6.93;;;;;;;;;;5050857;28;20025;-73
2023/08/17 10:53:42;;;;;;;8.25;7.25;;;;;;;;;;5032645;28;20451;-73
2023/08/17 10:56:09;;;;;;;11.38;7.10;;;;;;;;;;5049507;28;20037;-73
2023/08/17 10:58:35;;;;;;;8.90;7.78;;;;;;;;;;5048444;28;20029;-73
2023/08/17 11:01:01;;;;;;;8.40;7.53;;;;;;;;;;5047994;28;20025;-73
2023/08/17 11:03:28;;;;;;;7.40;6.03;;;;;;;;;;5048909;28;20060;-73
2023/08/17 11:05:58;;;;;;;7.43;6.50;;;;;;;;;;5050183;28;20032;-73
2023/08/17 11:08:28;;;;;;;9.25;7.55;;;;;;;;;;5048864;28;20017;-73
2023/08/17 11:11:04;;;;;;;8.30;7.47;;;;;;;;;;5050242;28;20357;-73
2023/08/17 11:13:31;;;;;;;9.52;7.93;;;;;;;;;;5028181;28;20076;-73
2023/08/17 11:15:58;;;;;;;8.57;7.10;;;;;;;;;;5040710;28;20484;-73
2023/08/17 11:18:24;;;;;;;8.60;7.80;;;;;;;;;;5047759;28;20029;-72
2023/08/17 11:20:50;;;;;;;11.07;7.60;;;;;;;;;;5057391;28;20041;-72
2023/08/17 11:23:16;;;;;;;9.02;7.30;;;;;;;;;;5030426;28;20033;-72
2023/08/17 11:25:43;;;;;;;7.43;6.63;;;;;;;;;;5051279;28;20031;-72
2023/08/17 11:28:09;;;;;;;9.02;7.05;;;;;;;;;;5052092;28;20017;-73
2023/08/17 11:30:38;;;;;;;7.85;7.05;;;;;;;;;;5052484;28;20029;-73
2023/08/17 11:33:05;;;;;;;9.07;6.90;;;;;;;;;;5053502;28;20028;-73
2023/08/17 11:35:31;;;;;;;7.00;6.15;;;;;;;;;;5053635;28;20028;-72
2023/08/17 11:37:57;;;;;;;12.25;7.38;;;;;;;;;;5052516;28;20029;-72
2023/08/17 11:40:23;;;;;;;9.43;7.25;;;;;;;;;;5053137;28;20104;-72
2023/08/17 11:42:49;;;;;;;12.18;7.78;;;;;;;;;;5035464;28;20025;-72
2023/08/17 11:45:15;;;;;;;7.85;7.00;;;;;;;;;;5053102;28;20100;-74
2023/08/17 11:47:43;;;;;;;9.57;8.40;;;;;;;;;;5045328;28;20028;-73
2023/08/17 11:50:10;;;;;;;9.90;7.07;;;;;;;;;;5039931;28;20028;-72
2023/08/17 11:52:39;;;;;;;7.63;7.03;;;;;;;;;;5033005;28;20025;-72
2023/08/17 11:55:11;;;;;;;9.10;7.38;;;;;;;;;;5032925;28;20053;-72
2023/08/17 11:57:38;;;;;;;11.73;8.13;;;;;;;;;;5031930;28;20469;-73
2023/08/17 12:00:09;;;;;;;8.73;7.45;;;;;;;;;;5014834;28;20071;-72
2023/08/17 12:02:41;;;;;;;9.88;7.00;;;;;;;;;;5032954;28;20449;-73
2023/08/17 12:05:09;;;;;;;13.13;8.02;;;;;;;;;;5033118;28;20017;-72
2023/08/17 12:07:35;;;;;;;8.52;6.93;;;;;;;;;;5032285;28;20056;-73
2023/08/17 12:10:03;;;;;;;8.98;6.38;;;;;;;;;;5033039;28;20346;-72
2023/08/17 12:12:29;;;;;;;9.25;6.75;;;;;;;;;;5016821;28;20028;-73
2023/08/17 12:14:55;;;;;;;11.68;7.65;;;;;;;;;;5034290;28;20098;-72
2023/08/17 12:17:22;;;;;;;10.52;6.85;;;;;;;;;;5049925;28;20029;-73
2023/08/17 12:19:54;;;;;;;8.70;7.65;;;;;;;;;;5051709;28;20369;-73
2023/08/17 12:22:23;;;;;;;9.82;6.78;;;;;;;;;;5052312;28;20031;-73
2023/08/17 12:24:49;;;;;;;8.90;7.07;;;;;;;;;;5051927;28;20469;-73
2023/08/17 12:27:15;;;;;;;7.70;6.43;;;;;;;;;;5033458;28;20123;-73
2023/08/17 12:29:51;;;;;;;8.93;7.03;;;;;;;;;;5052184;28;20060;-73
2023/08/17 12:32:18;;;;;;;7.28;6.50;;;;;;;;;;5051831;28;20031;-72
2023/08/17 12:34:44;;;;;;;8.85;6.90;;;;;;;;;;5051421;28;20037;-73
2023/08/17 12:37:10;;;;;;;8.82;6.85;;;;;;;;;;5051146;28;20033;-71
2023/08/17 12:39:37;;;;;;;8.57;6.55;;;;;;;;;;5052084;28;20029;-70
2023/08/17 12:42:03;;;;;;;12.23;6.63;;;;;;;;;;5052783;28;20029;-71
2023/08/17 12:44:29;;;;;;;9.18;6.68;;;;;;;;;;5052103;28;20044;-72
2023/08/17 12:46:55;;;;;;;7.03;6.32;;;;;;;;;;5051768;28;20572;-72
2023/08/17 12:49:21;;;;;;;9.38;5.90;;;;;;;;;;5051696;28;20116;-72
2023/08/17 12:51:47;;;;;;;10.82;6.38;;;;;;;;;;5051506;28;20100;-72
2023/08/17 12:54:13;;;;;;;6.75;6.00;;;;;;;;;;5050637;28;20404;-72
2023/08/17 12:56:39;;;;;;;10.25;5.25;;;;;;;;;;5052173;28;20083;-72
2023/08/17 12:59:05;;;;;;;6.68;5.38;;;;;;;;;;5051754;28;20385;-72
2023/08/17 13:01:31;;;;;;;6.80;5.78;;;;;;;;;;5034720;28;20068;-73
2023/08/17 13:03:57;;;;;;;6.97;5.80;;;;;;;;;;5034341;28;20045;-73
2023/08/17 13:06:23;;;;;;;7.60;5.50;;;;;;;;;;5052157;28;20476;-72
2023/08/17 13:08:49;;;;;;;9.82;5.68;;;;;;;;;;5045535;28;20404;-72
2023/08/17 13:11:15;;;;;;;7.15;5.10;;;;;;;;;;5053000;28;20025;-72
2023/08/17 13:13:41;;;;;;;6.35;5.22;;;;;;;;;;5051622;28;20029;-72
2023/08/17 13:16:07;;;;;;;9.23;5.68;;;;;;;;;;5051772;28;20122;-72
2023/08/17 13:18:33;;;;;;;8.85;4.82;;;;;;;;;;5050934;28;20040;-72
2023/08/17 13:20:59;;;;;;;9.63;5.22;;;;;;;;;;5052502;28;20097;-71
2023/08/17 13:23:25;;;;;;;11.50;6.28;;;;;;;;;;5049182;28;20503;-71
2023/08/17 13:25:51;;;;;;;12.07;5.50;;;;;;;;;;5033089;28;20111;-72
2023/08/17 13:28:17;;;;;;;6.32;5.63;;;;;;;;;;5033745;28;20022;-71
2023/08/17 13:30:43;;;;;;;5.85;5.18;;;;;;;;;;5031750;28;20504;-72
2023/08/17 13:33:09;;;;;;;8.15;5.80;;;;;;;;;;5031535;28;20052;-73
2023/08/17 13:35:35;;;;;;;6.30;5.65;;;;;;;;;;5031536;28;20485;-73
2023/08/17 13:38:04;;;;;;;5.97;4.60;;;;;;;;;;5030778;28;20107;-73
2023/08/17 13:40:30;;;;;;;7.13;5.50;;;;;;;;;;5031638;28;20100;-73
2023/08/17 13:42:56;;;;;;;7.75;5.30;;;;;;;;;;5031343;28;20101;-72
2023/08/17 13:45:22;;;;;;;7.07;5.15;;;;;;;;;;5031340;28;20112;-73
2023/08/17 13:47:48;;;;;;;6.22;4.78;;;;;;;;;;5029758;28;20393;-72
2023/08/17 13:50:14;;;;;;;5.90;5.38;;;;;;;;;;5028724;28;20021;-72
2023/08/17 13:52:40;;;;;;;8.68;5.55;;;;;;;;;;5036642;28;20014;-72
2023/08/17 13:55:06;;;;;;;5.63;5.03;;;;;;;;;;5051126;28;20044;-72
2023/08/17 13:57:32;;;;;;;7.40;5.95;;;;;;;;;;5050307;28;20449;-73
2023/08/17 13:59:58;;;;;;;6.10;5.05;;;;;;;;;;5050537;28;20025;-72
2023/08/17 14:02:24;;;;;;;5.60;4.80;;;;;;;;;;5052807;28;20024;-72
2023/08/17 14:04:50;;;;;;;5.45;4.65;;;;;;;;;;5049919;28;20485;-72
2023/08/17 14:07:17;;;;;;;7.30;4.90;;;;;;;;;;5050267;28;20072;-72
2023/08/17 14:09:43;;;;;;;6.47;5.10;;;;;;;;;;5051820;28;20102;-72
2023/08/17 14:12:09;;;;;;;6.03;4.80;;;;;;;;;;5050515;28;20732;-72
2023/08/17 14:14:35;;;;;;;5.40;4.60;;;;;;;;;;5049002;28;20020;-72
2023/08/17 14:17:02;;;;;;;12.00;5.22;;;;;;;;;;5030572;28;20088;-71
2023/08/17 14:19:28;;;;;;;11.75;5.07;;;;;;;;;;5050783;28;20095;-73
2023/08/17 14:21:55;;;;;;;8.00;4.97;;;;;;;;;;5048674;28;20025;-72